• Join FlightAware (Why Join?)
  • Login
  • US Flag 
06:34AM EDT


 

Airport Tracker/Info


-or-


 

Live Flight TrackerFlight Track Log ✈ CNS22 ✈ 13-May-2013 ✈ KPBI - KSPA

Flight Track Log - Related Links

Times and Time Zones

All times are in EDT time to prevent confusion due to time zone crossing. See the CNS22 flight status page for this flight to view local times or setup timezone preferences in your user account.

Time Position Orientation Groundspeed Altitude Reporting Facility
EDT Latitude Longitude Course Direction KTS MPH feet Rate Location/Type
05:22PM 26.7697 -80.1722 323° Northwest 168 193 3,300  Level Miami Center
05:23PM 26.8022 -80.2033 319° Northwest 168 193 4,400 1,440 Climbing Miami Center
05:24PM 26.8369 -80.2394 317° Northwest 174 200 6,200 1,620 Climbing Miami Center
05:25PM 26.8739 -80.2706 323° Northwest 156 180 7,700 1,500 Climbing Miami Center
05:26PM 26.9935 -80.3326 326° Northwest  Level FlightAware Approximate
05:26PM 26.9086 -80.3019 321° Northwest 156 180 9,200  Level Miami Center
05:27PM 26.9456 -80.3311 325° Northwest 161 185 10,100 960 Climbing Miami Center
05:28PM 26.9844 -80.3600 326° Northwest 176 203 11,200 1,140 Climbing Miami Center
05:29PM 27.0383 -80.3828 339° North 183 211 12,400 1,140 Climbing Miami Center
05:30PM 27.0878 -80.4053 338° Northwest 183 211 13,500 1,020 Climbing Miami Center
05:31PM 27.1311 -80.4300 333° Northwest 188 216 14,500 900 Climbing Miami Center
05:32PM 27.1700 -80.4544 331° Northwest 177 204 15,400 900 Climbing Miami Center
05:33PM 27.2133 -80.4814 331° Northwest 177 204 16,300 900 Climbing Miami Center
05:34PM 27.2606 -80.5111 331° Northwest 177 204 17,300 780 Climbing Miami Center
05:35PM 27.3036 -80.5403 329° Northwest 177 204 17,900 660 Climbing Miami Center
05:36PM 27.3428 -80.5672 329° Northwest 183 211 18,700 840 Climbing Miami Center
05:37PM 27.3839 -80.5919 332° Northwest 178 205 19,700 900 Climbing Miami Center
05:38PM 27.4247 -80.6192 329° Northwest 173 199 20,500 600 Climbing Miami Center
05:39PM 27.4639 -80.6439 331° Northwest 173 199 21,000 240 Climbing Miami Center
05:40PM 27.5111 -80.6733 331° Northwest 178 205 21,000  Level Miami Center
05:41PM 27.5644 -80.7081 330° Northwest 195 224 21,000  Level Miami Center
05:42PM 27.6178 -80.7403 332° Northwest 207 238 21,000  Level Miami Center
05:43PM 27.6692 -80.7747 329° Northwest 213 245 21,000  Level Miami Center
05:44PM 27.7203 -80.8094 329° Northwest 213 245 21,000  Level Miami Center
05:45PM 27.7819 -80.8444 333° Northwest 213 245 21,000  Level Miami Center
05:46PM 27.8333 -80.8767 331° Northwest 218 251 21,000  Level Miami Center
05:47PM 27.8886 -80.9117 331° Northwest 218 251 21,000  Level Miami Center
05:48PM 27.9400 -80.9464 329° Northwest 218 251 21,000  Level Miami Center
05:49PM 27.9953 -80.9789 333° Northwest 218 251 21,000  Level Miami Center
05:50PM 28.0464 -81.0136 329° Northwest 218 251 21,000  Level Miami Center
05:51PM 28.0997 -81.0486 330° Northwest 218 251 21,000  Level Miami Center
05:52PM 28.1531 -81.0836 330° Northwest 218 251 21,000  Level Miami Center
05:54PM 28.2508 -81.1467 330° Northwest 211 243 21,000  Level Jacksonville Center
05:55PM 28.3056 -81.1833 329° Northwest 218 251 21,000  Level Jacksonville Center
05:56PM 28.3603 -81.2178 331° Northwest 225 259 21,000  Level Jacksonville Center
05:57PM 28.4150 -81.2547 329° Northwest 231 266 21,000  Level Jacksonville Center
05:58PM 28.4717 -81.2914 330° Northwest 231 266 21,000  Level Jacksonville Center
05:59PM 28.5264 -81.3261 331° Northwest 231 266 21,000  Level Jacksonville Center
06:00PM 28.5933 -81.3417 348° North 231 266 21,000  Level Jacksonville Center
06:01PM 28.6667 -81.3500 354° North 241 277 21,000  Level Jacksonville Center
06:02PM 28.7375 -81.3558 356° North 254 292 21,000  Level Jacksonville Center
06:03PM 28.8108 -81.3642 354° North 254 292 21,000  Level Jacksonville Center
06:04PM 28.8797 -81.3681 357° North 254 292 21,000 -180 Level Jacksonville Center
06:05PM 28.9444 -81.3858 346° North 254 292 20,700 -600 Descending Jacksonville Center
06:06PM 29.0056 -81.4158 337° Northwest 243 280 19,800 -900 Descending Jacksonville Center
06:07PM 29.0661 -81.4364 343° North 231 266 19,000 -420 Descending Jacksonville Center
06:08PM 29.1350 -81.4400 357° North 231 266 19,000  Level Jacksonville Center
06:09PM 29.2000 -81.4533 350° North 236 272 19,000  Level Jacksonville Center
06:10PM 29.2628 -81.4619 353° North 236 272 19,000  Level Jacksonville Center
06:11PM 29.3275 -81.4731 351° North 236 272 19,000  Level Jacksonville Center
06:12PM 29.3922 -81.4817 353° North 236 272 19,000  Level Jacksonville Center
06:13PM 29.4572 -81.4903 353° North 236 272 19,000  Level Jacksonville Center
06:14PM 29.5219 -81.5011 352° North 236 272 19,000  Level Jacksonville Center
06:15PM 29.5847 -81.5097 353° North 236 272 19,000  Level Jacksonville Center
06:16PM 29.6494 -81.5186 353° North 236 272 19,000  Level Jacksonville Center
06:17PM 29.7144 -81.5294 352° North 236 272 19,000  Level Jacksonville Center
06:18PM 29.7769 -81.5383 353° North 236 272 19,000  Level Jacksonville Center
06:19PM 29.8397 -81.5492 351° North 236 272 19,000  Level Jacksonville Center
06:20PM 29.9067 -81.5581 353° North 236 272 19,000  Level Jacksonville Center
06:21PM 29.9717 -81.5689 352° North 236 272 19,000  Level Jacksonville Center
06:22PM 30.0364 -81.5778 353° North 236 272 19,000  Level Jacksonville Center
06:23PM 30.1011 -81.5864 353° North 236 272 19,000  Level Jacksonville Center
06:24PM 30.1681 -81.5975 352° North 236 272 19,000  Level Jacksonville Center
06:25PM 30.2328 -81.6064 353° North 236 272 19,000  Level Jacksonville Center
06:26PM 30.2978 -81.6175 352° North 236 272 19,000  Level Jacksonville Center
06:27PM 30.3625 -81.6286 352° North 236 272 19,000  Level Jacksonville Center
06:28PM 30.4336 -81.6397 352° North 236 272 19,000  Level Jacksonville Center
06:29PM 30.4986 -81.6511 351° North 236 272 19,000  Level Jacksonville Center
06:30PM 30.5653 -81.6597 354° North 236 272 19,000  Level Jacksonville Center
06:31PM 30.6303 -81.6686 353° North 236 272 19,000  Level Jacksonville Center
06:32PM 30.6931 -81.6797 351° North 236 272 19,000  Level Jacksonville Center
06:33PM 30.7578 -81.6886 353° North 236 272 19,000  Level Jacksonville Center
06:34PM 30.8225 -81.7000 351° North 236 272 19,000  Level Jacksonville Center
06:35PM 30.8875 -81.7089 353° North 236 272 19,000  Level Jacksonville Center
06:36PM 30.9500 -81.7203 351° North 236 272 19,000  Level Jacksonville Center
06:37PM 31.0150 -81.7314 352° North 236 272 19,000  Level Jacksonville Center
06:38PM 31.0778 -81.7403 353° North 236 272 19,000  Level Jacksonville Center
06:39PM 31.1403 -81.7494 353° North 236 272 19,000  Level Jacksonville Center
06:40PM 31.2053 -81.7608 351° North 231 266 19,000  Level Jacksonville Center
06:41PM 31.2700 -81.7719 352° North 231 266 19,000  Level Jacksonville Center
06:42PM 31.3328 -81.7811 353° North 225 259 19,000  Level Jacksonville Center
06:43PM 31.3956 -81.7853 357° North 226 260 19,000  Level Jacksonville Center
06:44PM 31.4622 -81.7892 357° North 236 272 19,000  Level Jacksonville Center
06:45PM 31.5208 -81.7886 360° North 230 265 19,000  Level Jacksonville Center
06:46PM 31.5939 -81.7975 354° North 236 272 19,000  Level Jacksonville Center
06:47PM 31.6608 -81.7992 359° North 236 272 19,000  Level Jacksonville Center
06:48PM 31.7192 -81.8033 357° North 236 272 19,000  Level Jacksonville Center
06:49PM 31.7903 -81.8050 359° North 228 262 19,000  Level Jacksonville Center
06:50PM 31.8486 -81.8092 357° North 233 268 19,000  Level Jacksonville Center
06:51PM 31.9219 -81.8108 359° North 233 268 19,000  Level Jacksonville Center
06:52PM 31.9886 -81.8147 357° North 233 268 19,000  Level Jacksonville Center
06:53PM 32.0472 -81.8167 358° North 233 268 19,000  Level Jacksonville Center
06:54PM 32.1203 -81.8206 357° North 233 268 19,000  Level Jacksonville Center
06:55PM 32.1850 -81.8247 357° North 233 268 19,000  Level Jacksonville Center
06:56PM 32.2414 -81.8267 358° North 233 268 19,000  Level Jacksonville Center
06:57PM 32.3144 -81.8306 357° North 233 268 19,000  Level Jacksonville Center
06:58PM 32.3731 -81.8347 357° North 233 268 19,000  Level Jacksonville Center
06:59PM 32.4439 -81.8389 357° North 233 268 19,000  Level Jacksonville Center
07:00PM 32.5086 -81.8408 359° North 233 268 19,000  Level Jacksonville Center
07:01PM 32.5672 -81.8425 359° North 233 268 19,000  Level Jacksonville Center
07:02PM 32.6383 -81.8467 357° North 233 268 19,000  Level Jacksonville Center
07:03PM 32.6967 -81.8483 359° North 233 268 19,000  Level Jacksonville Center
07:05PM 32.8458 -81.8506 359° North 236 272 19,000  Level Atlanta Center
07:06PM 32.9067 -81.8567 355° North 236 272 19,000  Level Atlanta Center
07:07PM 32.9714 -81.8625 356° North 236 272 19,000  Level Atlanta Center
07:08PM 33.0403 -81.8656 358° North 236 272 19,000  Level Atlanta Center
07:09PM 33.1031 -81.8689 357° North 231 266 19,000  Level Atlanta Center
07:10PM 33.1678 -81.8700 359° North 231 266 19,000  Level Atlanta Center
07:11PM 33.2325 -81.8733 358° North 231 266 19,000  Level Atlanta Center
07:12PM 33.2950 -81.8767 357° North 231 266 19,000  Level Atlanta Center
07:13PM 33.3578 -81.8800 357° North 231 266 19,000  Level Atlanta Center
07:14PM 33.4206 -81.8808 359° North 225 259 19,000 -240 Level Atlanta Center
07:15PM 33.4831 -81.8869 355° North 225 259 18,600 -420 Descending Atlanta Center
07:16PM 33.5500 -81.8878 359° North 225 259 18,200 -420 Descending Atlanta Center
07:17PM 33.6169 -81.8936 356° North 230 265 17,800 -360 Descending Atlanta Center
07:18PM 33.6817 -81.8944 359° North 230 265 17,500 -360 Descending Atlanta Center
07:19PM 33.7486 -81.9003 356° North 235 270 17,100 -300 Descending Atlanta Center
07:20PM 33.8133 -81.9036 358° North 235 270 17,000 -240 Descending Atlanta Center
07:21PM 33.8697 -81.9047 359° North 235 270 16,700 -600 Descending Atlanta Center
07:22PM 33.9364 -81.9081 358° North 235 270 15,800 -900 Descending Atlanta Center
07:23PM 34.0053 -81.9114 358° North 240 276 14,900 -900 Descending Atlanta Center
07:24PM 34.0722 -81.9147 358° North 240 276 14,000 -900 Descending Atlanta Center
07:25PM 34.1392 -81.9181 358° North 240 276 13,100 -900 Descending Atlanta Center
07:26PM 34.2017 -81.9214 357° North 232 267 12,200 -900 Descending Atlanta Center
07:27PM 34.2644 -81.9275 355° North 227 261 11,300 -840 Descending Atlanta Center
07:28PM 34.3272 -81.9283 359° North 222 255 10,600 -660 Descending Atlanta Center
07:29PM 34.3878 -81.9319 357° North 217 250 10,000 -660 Descending Atlanta Center
07:30PM 34.4483 -81.9406 353° North 217 250 9,300 -780 Descending Atlanta Center
07:31PM 34.5133 -81.9539 350° North 223 257 8,500 -900 Descending Atlanta Center
07:32PM 34.5761 -81.9625 354° North 223 257 7,600 -1,080 Descending Atlanta Center
07:33PM 34.6411 -81.9786 348° North 223 257 6,400 -1,200 Descending Atlanta Center
07:35PM 34.7479 -81.9685 North  Level FlightAware Approximate